Mugan — 9HA2962 — position and weather

sailwx.info

Track history (hours):
 
Tides and Currents Weather Stations Pressure Air Temp Water Temp Dewpoint Dewpoint Depression Visibility Wind Speed Wind Dir Waves Ship Positions

Mugan

Last reported at 2015-Jun-26 22:15 UTC. Time now 2015-Jul-02 23:07 UTC.
Position N 36°31' E 027°27'.

Length 140 m; draft 4.5 m.

Type: Tanker. MMSI: 256914000.

Date/timePositionNaut miles runAvg speedWind from/ knotsBaromVisibWave heightAir tempDewpointWater temp
2015-Jun-26 22:15N 36°31' E 027°27'910.1
2015-Jun-26 21:21N 36°32' E 027°15'810.1
2015-Jun-26 20:32N 36°32' E 027°05'14 9.7
2015-Jun-26 19:07N 36°38' E 026°50'6 9.9
2015-Jun-26 18:32N 36°42' E 026°44'1110.3
2015-Jun-26 17:30N 36°48' E 026°33'1210.7
2015-Jun-26 16:24N 36°54' E 026°21'4010.4
2015-Jun-26 12:33N 37°29' E 025°56'1110.1
2015-Jun-26 11:27N 37°39' E 025°50'234 8.6
2015-Jun-25 08:08N 40°54' E 028°38'710.0
2015-Jun-25 07:28N 40°55' E 028°47'10 8.1
2015-Jun-25 06:17N 40°59' E 028°58'  
2015-Jun-21 18:07N 46°16' E 030°44'0 0.0
2015-Jun-21 17:33N 46°16' E 030°44'13 0.3
2015-Jun-20 00:33N 46°13' E 031°03'326 9.5
2015-Jun-18 14:20N 40°59' E 028°60'  
Track history (hours):
 
Tides and Currents Weather Stations Pressure Air Temp Water Temp Dewpoint Dewpoint Depression Visibility Wind Speed Wind Dir Waves Ship Positions

Mugan

Last reported at 2015-Jun-26 22:15 UTC. Time now 2015-Jul-02 23:07 UTC.
Position N 36°31' E 027°27'.

Length 140 m; draft 4.5 m.

Type: Tanker. MMSI: 256914000.

Date/timePositionNaut miles runAvg speedWind from/ knotsBaromVisibWave heightAir tempDewpointWater temp
2015-Jun-26 22:15N 36°31' E 027°27'910.1
2015-Jun-26 21:21N 36°32' E 027°15'810.1
2015-Jun-26 20:32N 36°32' E 027°05'14 9.7
2015-Jun-26 19:07N 36°38' E 026°50'6 9.9
2015-Jun-26 18:32N 36°42' E 026°44'1110.3
2015-Jun-26 17:30N 36°48' E 026°33'1210.7
2015-Jun-26 16:24N 36°54' E 026°21'4010.4
2015-Jun-26 12:33N 37°29' E 025°56'1110.1
2015-Jun-26 11:27N 37°39' E 025°50'234 8.6
2015-Jun-25 08:08N 40°54' E 028°38'710.0
2015-Jun-25 07:28N 40°55' E 028°47'10 8.1
2015-Jun-25 06:17N 40°59' E 028°58'  
2015-Jun-21 18:07N 46°16' E 030°44'0 0.0
2015-Jun-21 17:33N 46°16' E 030°44'13 0.3
2015-Jun-20 00:33N 46°13' E 031°03'326 9.5
2015-Jun-18 14:20N 40°59' E 028°60'  

Dump ship's entire track history